createdAt,value
2022-09-30T00:01:48.152Z,0.20
2022-09-30T00:04:22.702Z,0.75
2022-09-30T00:06:52.560Z,0.20
2022-09-30T00:11:49.641Z,0.30
2022-09-30T00:14:21.721Z,0.40
2022-09-30T00:16:49.908Z,0.20
2022-09-30T00:19:17.709Z,0.20
2022-09-30T00:21:45.619Z,0.28
2022-09-30T00:24:13.730Z,0.30
2022-09-30T00:26:41.510Z,0.10
2022-09-30T00:29:11.122Z,0.10
2022-09-30T00:31:39.320Z,0.22
2022-09-30T00:34:07.587Z,0.23
2022-09-30T00:36:40.305Z,0.30
2022-09-30T00:39:11.793Z,0.38
2022-09-30T00:41:39.688Z,0.30
2022-09-30T00:45:03.434Z,0.20
2022-09-30T00:47:42.102Z,0.13
2022-09-30T00:50:16.902Z,0.30
2022-09-30T00:53:31.241Z,0.10
2022-09-30T00:56:22.378Z,0.52
2022-09-30T00:59:16.547Z,0.30
2022-09-30T01:01:44.567Z,0.70
2022-09-30T01:04:22.159Z,0.70
2022-09-30T01:07:09.145Z,1.30
2022-09-30T01:09:40.637Z,0.30
2022-09-30T01:12:18.773Z,0.38
2022-09-30T01:14:53.210Z,0.20
2022-09-30T01:17:59.963Z,0.40
2022-09-30T01:21:18.857Z,0.70
2022-09-30T01:23:58.072Z,0.68
2022-09-30T01:27:05.561Z,0.65
2022-09-30T01:30:15.012Z,0.80
2022-09-30T01:33:09.575Z,0.40
2022-09-30T01:36:01.450Z,1.27
2022-09-30T01:38:43.751Z,0.43
2022-09-30T01:41:35.217Z,0.57
2022-09-30T01:44:25.209Z,0.57
2022-09-30T01:47:39.641Z,0.20
2022-09-30T01:50:21.982Z,0.28
2022-09-30T01:53:08.823Z,0.20
2022-09-30T01:55:45.005Z,0.50
2022-09-30T01:58:20.332Z,0.35
2022-09-30T02:00:53.297Z,0.17
2022-09-30T02:03:36.791Z,0.10
2022-09-30T02:06:20.620Z,0.20
2022-09-30T02:09:03.832Z,0.40
2022-09-30T02:11:38.480Z,0.10
2022-09-30T02:14:34.377Z,0.10
2022-09-30T02:17:29.047Z,0.28
2022-09-30T02:20:12.609Z,0.15
2022-09-30T02:22:52.329Z,0.50
2022-09-30T02:25:35.868Z,0.40
2022-09-30T02:28:08.441Z,0.17
2022-09-30T02:30:41.124Z,0.17
2022-09-30T02:33:17.597Z,0.10
2022-09-30T02:35:57.772Z,0.20
2022-09-30T02:38:37.189Z,0.10
2022-09-30T02:41:22.072Z,0.10
2022-09-30T02:43:52.404Z,0.10
2022-09-30T02:46:35.510Z,0.10
2022-09-30T02:49:22.444Z,0.00
2022-09-30T02:52:36.194Z,0.10
2022-09-30T02:55:38.594Z,0.10
2022-09-30T02:58:19.882Z,0.10
2022-09-30T03:00:49.093Z,0.10
2022-09-30T03:03:22.918Z,0.10
2022-09-30T03:05:51.944Z,0.10
2022-09-30T03:08:19.706Z,0.20
2022-09-30T03:10:51.057Z,0.20
2022-09-30T03:13:29.053Z,0.15
2022-09-30T03:16:22.950Z,0.38
2022-09-30T03:19:09.451Z,0.40
2022-09-30T03:22:10.966Z,0.38
2022-09-30T03:25:18.586Z,0.00
2022-09-30T03:28:00.196Z,0.10
2022-09-30T03:30:30.532Z,0.10
2022-09-30T03:33:24.581Z,0.30
2022-09-30T03:36:14.441Z,0.30
2022-09-30T03:39:06.040Z,0.10
2022-09-30T03:42:10.563Z,0.50
2022-09-30T03:44:59.910Z,0.22
2022-09-30T03:47:31.533Z,0.20
2022-09-30T03:50:07.013Z,0.10
2022-09-30T03:52:36.830Z,0.20
2022-09-30T03:55:08.659Z,0.00
2022-09-30T03:57:36.391Z,0.10
2022-09-30T04:00:06.235Z,0.05
2022-09-30T05:02:31.813Z,0.47
2022-09-30T05:05:00.681Z,0.25
2022-09-30T05:07:28.163Z,0.35
2022-09-30T05:09:55.638Z,0.43
2022-09-30T05:12:23.861Z,0.47
2022-09-30T05:14:51.304Z,0.80
2022-09-30T05:17:18.925Z,1.08
2022-09-30T05:19:46.618Z,0.50
2022-09-30T05:22:15.104Z,0.70
2022-09-30T05:24:42.548Z,0.50
2022-09-30T05:27:10.370Z,0.43
2022-09-30T05:29:37.853Z,0.60
2022-09-30T05:32:06.096Z,0.60
2022-09-30T05:34:34.045Z,0.40
2022-09-30T05:37:01.624Z,0.77
2022-09-30T05:39:29.069Z,0.75
2022-09-30T05:41:58.525Z,2.20
2022-09-30T05:44:26.015Z,2.65
2022-09-30T05:46:53.623Z,3.58
2022-09-30T05:49:22.156Z,2.67
2022-09-30T05:51:49.805Z,1.52
2022-09-30T05:54:17.241Z,1.20
2022-09-30T05:56:45.004Z,1.42
2022-09-30T05:59:12.486Z,1.00
2022-09-30T06:01:40.115Z,1.25
2022-09-30T06:04:07.928Z,1.25
2022-09-30T06:06:35.393Z,0.90
2022-09-30T06:09:03.037Z,1.95
2022-09-30T06:11:31.649Z,1.88
2022-09-30T06:13:59.187Z,1.90
2022-09-30T06:16:26.915Z,1.55
2022-09-30T06:18:55.401Z,1.70
2022-09-30T06:21:23.522Z,1.10
2022-09-30T06:23:51.126Z,1.20
2022-09-30T06:26:18.878Z,1.13
2022-09-30T06:28:46.403Z,1.20
2022-09-30T06:31:14.753Z,1.05
2022-09-30T06:33:43.192Z,1.30
2022-09-30T06:36:10.802Z,2.10
2022-09-30T06:38:40.204Z,3.35
2022-09-30T06:41:08.635Z,1.77
2022-09-30T06:43:46.060Z,0.57
2022-09-30T06:46:30.587Z,0.60
2022-09-30T06:49:13.428Z,0.80
2022-09-30T06:51:42.217Z,1.25
2022-09-30T06:54:10.550Z,1.40
2022-09-30T06:56:38.264Z,1.65
2022-09-30T06:59:06.112Z,1.55
2022-09-30T07:01:33.804Z,1.50
2022-09-30T07:04:08.029Z,1.90
2022-09-30T07:06:35.920Z,1.65
2022-09-30T07:09:03.847Z,1.55
2022-09-30T07:11:31.575Z,1.92
2022-09-30T07:13:59.370Z,1.40
2022-09-30T07:16:27.104Z,1.45
2022-09-30T07:18:55.020Z,1.00
2022-09-30T07:21:22.850Z,0.80
2022-09-30T07:23:52.830Z,1.25
2022-09-30T07:26:23.559Z,3.47
2022-09-30T07:28:52.796Z,2.65
2022-09-30T07:31:33.752Z,1.80
2022-09-30T07:34:09.422Z,1.17
2022-09-30T07:36:40.498Z,1.40
2022-09-30T07:39:11.047Z,1.23
2022-09-30T07:41:40.175Z,1.02
2022-09-30T07:44:14.304Z,1.58
2022-09-30T07:46:44.467Z,1.92
2022-09-30T07:49:24.779Z,1.40
2022-09-30T07:52:03.182Z,1.65
2022-09-30T07:54:38.737Z,1.58
2022-09-30T07:57:11.160Z,2.10
2022-09-30T07:59:41.702Z,1.42
2022-09-30T08:02:18.120Z,2.40
2022-09-30T08:04:46.629Z,2.40
2022-09-30T08:07:16.415Z,2.20
2022-09-30T08:09:44.361Z,1.88
2022-09-30T08:12:11.988Z,1.65
2022-09-30T08:14:39.781Z,1.30
2022-09-30T08:17:07.279Z,1.15
2022-09-30T08:19:35.802Z,1.33
2022-09-30T08:22:04.196Z,1.52
2022-09-30T08:24:32.124Z,0.93
2022-09-30T08:26:59.701Z,1.35
2022-09-30T08:29:54.320Z,1.30
2022-09-30T08:32:15.628Z,1.13
2022-09-30T08:34:43.525Z,0.90
2022-09-30T08:37:10.972Z,0.85
2022-09-30T08:39:39.085Z,1.10
2022-09-30T08:42:39.537Z,0.90
2022-09-30T08:45:19.553Z,1.30
2022-09-30T08:48:05.608Z,1.90
2022-09-30T08:50:50.074Z,1.77
2022-09-30T08:53:31.502Z,1.45
2022-09-30T08:56:02.763Z,1.40
2022-09-30T08:58:39.251Z,1.67
2022-09-30T09:01:48.493Z,1.75
2022-09-30T09:04:18.482Z,1.88
2022-09-30T09:07:19.608Z,2.50
2022-09-30T09:10:32.914Z,1.73
2022-09-30T09:13:37.260Z,3.53
2022-09-30T09:16:28.817Z,2.13
2022-09-30T09:19:11.807Z,2.38
2022-09-30T09:22:02.003Z,2.28
2022-09-30T09:24:46.238Z,2.05
2022-09-30T09:28:00.191Z,1.90
2022-09-30T09:30:43.592Z,1.20
2022-09-30T09:33:22.988Z,2.03
2022-09-30T09:39:06.126Z,1.58
2022-09-30T09:41:56.219Z,1.50
2022-09-30T09:45:12.999Z,2.38
2022-09-30T09:47:45.708Z,1.48
2022-09-30T09:51:05.384Z,2.00
2022-09-30T09:53:53.637Z,1.85
2022-09-30T09:56:31.848Z,2.25
2022-09-30T09:59:20.072Z,1.92
2022-09-30T10:01:54.154Z,1.90
2022-09-30T10:04:33.309Z,1.63
2022-09-30T10:07:13.590Z,1.67
2022-09-30T10:09:43.192Z,1.25
2022-09-30T10:12:13.626Z,1.35
2022-09-30T10:15:12.296Z,0.77
2022-09-30T10:17:40.857Z,0.88
2022-09-30T10:20:31.728Z,1.00
2022-09-30T10:23:23.504Z,0.82
2022-09-30T10:26:14.665Z,0.65
2022-09-30T10:29:06.414Z,0.75
2022-09-30T10:31:40.889Z,0.77
2022-09-30T10:34:35.436Z,1.08
2022-09-30T10:37:23.801Z,0.38
2022-09-30T10:40:01.410Z,0.20
2022-09-30T10:42:40.750Z,0.20
2022-09-30T10:45:37.280Z,0.20
2022-09-30T10:48:16.580Z,0.25
2022-09-30T10:50:53.139Z,0.30
2022-09-30T10:53:30.899Z,0.15
2022-09-30T10:55:59.527Z,0.17
2022-09-30T10:58:48.607Z,0.10
2022-09-30T11:01:48.368Z,0.25
2022-09-30T11:04:24.477Z,0.30
2022-09-30T11:07:19.208Z,0.10
2022-09-30T11:10:08.907Z,0.10
2022-09-30T11:12:48.928Z,0.10
2022-09-30T11:15:45.854Z,0.20
2022-09-30T11:18:34.920Z,0.17
2022-09-30T11:24:14.092Z,0.32
2022-09-30T11:27:06.952Z,0.65
2022-09-30T11:29:40.678Z,0.15
2022-09-30T11:32:55.105Z,0.10
2022-09-30T11:35:42.129Z,0.20
2022-09-30T11:38:46.246Z,0.10
2022-09-30T11:41:13.920Z,0.20
2022-09-30T11:44:21.951Z,0.10
2022-09-30T11:46:52.468Z,0.22
2022-09-30T11:49:25.976Z,0.10
2022-09-30T11:52:18.858Z,0.50
2022-09-30T11:55:23.673Z,0.20
2022-09-30T11:58:22.400Z,0.10
2022-09-30T12:00:59.262Z,0.20
2022-09-30T12:03:40.032Z,0.22
2022-09-30T12:06:22.921Z,0.20
2022-09-30T12:09:01.363Z,0.10
2022-09-30T12:12:08.567Z,0.10
2022-09-30T12:14:53.694Z,0.40
2022-09-30T12:18:10.975Z,0.15
2022-09-30T12:20:54.192Z,0.20
2022-09-30T12:23:39.624Z,0.20
2022-09-30T12:26:07.514Z,0.10
2022-09-30T12:29:04.706Z,0.28
2022-09-30T12:31:41.221Z,0.30
2022-09-30T12:34:48.360Z,0.30
2022-09-30T12:38:03.408Z,0.10
2022-09-30T12:41:35.919Z,0.20
2022-09-30T12:44:52.760Z,0.55
2022-09-30T12:47:38.587Z,0.20
2022-09-30T12:50:09.168Z,0.38
2022-09-30T12:52:38.376Z,0.30
2022-09-30T12:55:31.234Z,0.40
2022-09-30T12:58:01.452Z,0.17
2022-09-30T13:00:36.145Z,0.10
2022-09-30T13:03:15.903Z,0.20
2022-09-30T13:05:47.373Z,0.20
2022-09-30T13:08:36.625Z,1.38
2022-09-30T13:11:08.129Z,0.60
2022-09-30T13:14:43.655Z,0.50
2022-09-30T13:17:11.499Z,0.50
2022-09-30T13:19:51.980Z,0.57
2022-09-30T13:22:39.773Z,0.20
2022-09-30T13:25:16.678Z,0.20
2022-09-30T13:27:55.506Z,0.30
2022-09-30T13:30:24.780Z,0.60
2022-09-30T13:35:37.251Z,0.30
2022-09-30T13:38:21.814Z,0.70
2022-09-30T13:41:22.785Z,0.70
2022-09-30T13:43:53.075Z,0.65
2022-09-30T13:46:43.191Z,0.77
2022-09-30T13:49:35.965Z,1.48
2022-09-30T13:52:16.575Z,1.83
2022-09-30T13:54:47.788Z,1.75
2022-09-30T13:57:23.538Z,0.98
2022-09-30T14:00:18.049Z,1.70
2022-09-30T14:03:32.687Z,1.52
2022-09-30T14:06:16.593Z,1.75
2022-09-30T14:09:13.980Z,1.90
2022-09-30T14:12:17.635Z,2.50
2022-09-30T14:15:37.939Z,1.33
2022-09-30T14:18:33.330Z,1.45
2022-09-30T14:21:34.109Z,2.08
2022-09-30T14:24:17.468Z,4.20
2022-09-30T14:27:28.079Z,1.92
2022-09-30T14:30:26.811Z,2.60
2022-09-30T14:33:09.335Z,2.53
2022-09-30T14:35:41.606Z,2.72
2022-09-30T14:38:18.193Z,2.60
2022-09-30T14:40:55.289Z,2.90
2022-09-30T14:43:40.349Z,3.22
2022-09-30T14:46:40.966Z,4.78
2022-09-30T14:49:16.566Z,5.28
2022-09-30T14:51:49.244Z,3.58
2022-09-30T14:54:26.677Z,3.83
2022-09-30T14:56:55.883Z,4.65
2022-09-30T14:59:27.671Z,4.90
2022-09-30T15:02:03.944Z,5.50
2022-09-30T15:04:38.961Z,4.45
2022-09-30T15:07:11.984Z,4.45
2022-09-30T15:09:46.556Z,3.60
2022-09-30T15:12:19.336Z,4.00
2022-09-30T15:14:54.829Z,2.08
2022-09-30T15:17:36.283Z,2.53
2022-09-30T15:20:32.670Z,2.88
2022-09-30T15:23:09.489Z,3.67
2022-09-30T15:25:37.569Z,4.50
2022-09-30T15:28:09.039Z,3.53
2022-09-30T15:30:36.672Z,3.15
2022-09-30T15:33:06.350Z,6.65
2022-09-30T15:35:34.059Z,9.10
2022-09-30T15:38:16.324Z,5.13
2022-09-30T15:41:09.700Z,4.97
2022-09-30T15:43:52.919Z,4.95
2022-09-30T15:46:26.018Z,4.88
2022-09-30T15:48:59.507Z,5.03
2022-09-30T15:51:33.627Z,5.22
2022-09-30T15:54:33.263Z,6.63
2022-09-30T15:57:04.531Z,5.22
2022-09-30T16:00:06.331Z,6.28
2022-09-30T16:02:35.490Z,5.10
2022-09-30T16:05:05.453Z,4.07
2022-09-30T16:07:33.320Z,3.35
2022-09-30T16:10:01.187Z,5.32
2022-09-30T16:12:36.217Z,5.10
2022-09-30T16:15:15.576Z,5.65
2022-09-30T16:17:50.166Z,3.80
2022-09-30T16:20:17.941Z,3.20
2022-09-30T16:22:45.382Z,3.28
2022-09-30T16:25:34.413Z,3.22
2022-09-30T16:28:14.310Z,3.78
2022-09-30T16:30:46.024Z,3.47
2022-09-30T16:33:15.596Z,3.53
2022-09-30T16:35:44.337Z,3.67
2022-09-30T16:38:18.291Z,7.28
2022-09-30T16:40:46.444Z,6.90
2022-09-30T16:43:14.370Z,6.95
2022-09-30T16:45:42.577Z,5.65
2022-09-30T16:48:19.265Z,5.25
2022-09-30T16:51:04.804Z,6.03
2022-09-30T16:53:32.727Z,5.80
2022-09-30T16:56:00.911Z,5.93
2022-09-30T16:58:28.762Z,4.90
2022-09-30T17:01:00.229Z,3.83
2022-09-30T17:03:28.792Z,5.35
2022-09-30T17:05:57.120Z,4.72
2022-09-30T17:08:24.908Z,5.68
2022-09-30T17:10:52.668Z,5.93
2022-09-30T17:13:20.358Z,4.35
2022-09-30T17:15:52.115Z,4.40
2022-09-30T17:18:20.302Z,3.90
2022-09-30T17:20:52.935Z,5.03
2022-09-30T17:23:25.412Z,6.55
2022-09-30T17:25:54.856Z,5.97
2022-09-30T17:28:23.018Z,5.05
2022-09-30T17:30:50.703Z,4.05
2022-09-30T17:33:21.218Z,4.07
2022-09-30T17:36:00.681Z,3.00
2022-09-30T17:38:29.445Z,4.93
2022-09-30T17:41:16.005Z,3.90
2022-09-30T17:43:45.757Z,3.25
2022-09-30T17:46:18.986Z,3.53
2022-09-30T17:48:47.065Z,2.80
2022-09-30T17:51:18.646Z,2.27
2022-09-30T17:53:47.053Z,3.10
2022-09-30T17:56:22.641Z,3.40
2022-09-30T17:58:51.174Z,3.42
2022-09-30T18:01:21.471Z,2.80
2022-09-30T18:03:53.131Z,5.13
2022-09-30T18:06:39.592Z,4.15
2022-09-30T18:09:07.310Z,3.35
2022-09-30T18:11:54.538Z,2.20
2022-09-30T18:14:22.217Z,1.80
2022-09-30T18:16:49.867Z,1.92
2022-09-30T18:19:17.841Z,1.67
2022-09-30T18:21:46.074Z,2.03
2022-09-30T18:24:13.790Z,0.98
2022-09-30T18:26:41.660Z,0.90
2022-09-30T18:29:09.507Z,1.42
2022-09-30T18:31:38.875Z,0.85
2022-09-30T18:34:25.652Z,1.20
2022-09-30T18:36:53.360Z,0.70
2022-09-30T18:39:21.578Z,1.40
2022-09-30T18:41:49.624Z,1.83
2022-09-30T18:44:17.202Z,0.85
2022-09-30T18:47:05.509Z,2.08
2022-09-30T18:49:33.109Z,2.55
2022-09-30T18:52:01.867Z,3.15
2022-09-30T18:56:57.620Z,1.60
2022-09-30T18:59:26.235Z,1.55
2022-09-30T19:01:55.765Z,1.35
2022-09-30T19:04:23.390Z,2.15
2022-09-30T19:06:51.030Z,2.40
2022-09-30T19:09:20.442Z,2.78
2022-09-30T19:11:49.419Z,2.58
2022-09-30T19:14:17.457Z,2.20
2022-09-30T19:16:47.395Z,1.77
2022-09-30T19:19:16.205Z,1.42
2022-09-30T19:21:44.824Z,1.75
2022-09-30T19:24:12.878Z,1.17
2022-09-30T19:26:41.114Z,1.17
2022-09-30T19:29:11.124Z,1.38
2022-09-30T19:31:39.908Z,1.30
2022-09-30T19:34:11.456Z,1.35
2022-09-30T19:36:49.873Z,1.60
2022-09-30T19:39:19.283Z,1.67
2022-09-30T19:41:47.381Z,1.33
2022-09-30T19:44:19.034Z,1.85
2022-09-30T19:46:54.985Z,1.83
2022-09-30T19:49:23.747Z,2.40
2022-09-30T19:51:52.864Z,3.28
2022-09-30T19:57:08.163Z,3.13
2022-09-30T19:59:36.059Z,3.53
2022-09-30T20:02:04.380Z,3.00
2022-09-30T20:04:34.402Z,3.40
2022-09-30T20:07:02.467Z,3.08
2022-09-30T20:09:30.292Z,3.00
2022-09-30T20:11:58.161Z,3.33
2022-09-30T20:14:44.938Z,3.42
2022-09-30T20:17:12.919Z,3.42
2022-09-30T20:19:40.562Z,2.72
2022-09-30T20:22:08.175Z,2.67
2022-09-30T20:24:37.989Z,2.88
2022-09-30T20:27:06.107Z,2.28
2022-09-30T20:29:34.154Z,2.15
2022-09-30T20:32:03.970Z,2.63
2022-09-30T20:34:34.487Z,2.28
2022-09-30T20:37:06.361Z,2.10
2022-09-30T20:39:34.698Z,1.77
2022-09-30T20:42:02.268Z,3.13
2022-09-30T20:44:30.812Z,2.50
2022-09-30T20:47:00.006Z,2.83
2022-09-30T20:49:28.744Z,1.88
2022-09-30T20:51:56.585Z,2.70
2022-09-30T20:54:24.895Z,2.28
2022-09-30T20:57:06.644Z,1.63
2022-09-30T20:59:35.396Z,2.40
2022-09-30T21:02:02.987Z,2.53
2022-09-30T21:04:31.515Z,1.65
2022-09-30T21:09:37.217Z,1.88
2022-09-30T21:12:13.621Z,2.00
2022-09-30T21:14:43.668Z,1.40
2022-09-30T21:17:11.818Z,1.60
2022-09-30T21:19:40.009Z,1.92
2022-09-30T21:22:08.128Z,1.88
2022-09-30T21:24:40.680Z,1.77
2022-09-30T21:27:12.411Z,2.10
2022-09-30T21:29:43.892Z,2.00
2022-09-30T21:32:11.680Z,1.30
2022-09-30T21:34:40.094Z,1.10
2022-09-30T21:37:09.036Z,1.77
2022-09-30T21:39:38.555Z,1.33
2022-09-30T21:42:07.589Z,1.67
2022-09-30T21:44:35.532Z,1.42
2022-09-30T21:47:03.314Z,1.58
2022-09-30T21:49:30.946Z,1.52
2022-09-30T21:51:58.850Z,1.67
2022-09-30T21:54:27.746Z,1.10
2022-09-30T21:56:55.289Z,1.83
2022-09-30T21:59:25.637Z,2.20
2022-09-30T22:01:53.383Z,2.17
2022-09-30T22:04:21.049Z,2.33
2022-09-30T22:06:49.262Z,1.95
2022-09-30T22:09:16.810Z,1.63
2022-09-30T22:11:44.883Z,1.73
2022-09-30T22:14:12.804Z,3.28
2022-09-30T22:16:40.775Z,2.28
2022-09-30T22:19:09.291Z,1.30
2022-09-30T22:21:38.585Z,0.63
2022-09-30T22:26:37.260Z,0.75
2022-09-30T22:29:13.019Z,1.13
2022-09-30T22:31:41.169Z,0.75
2022-09-30T22:34:32.432Z,0.55
2022-09-30T22:37:18.623Z,0.57
2022-09-30T22:39:46.479Z,0.60
2022-09-30T22:42:14.114Z,0.55
2022-09-30T22:44:41.751Z,0.57
2022-09-30T22:47:11.176Z,0.55
2022-09-30T22:49:38.841Z,0.95
2022-09-30T22:52:06.865Z,1.10
2022-09-30T22:54:36.667Z,1.50
2022-09-30T22:57:05.638Z,0.60
2022-09-30T22:59:33.505Z,0.65
2022-09-30T23:02:01.344Z,0.50
2022-09-30T23:04:29.102Z,0.68
2022-09-30T23:06:56.811Z,0.40
2022-09-30T23:09:25.247Z,0.43
2022-09-30T23:11:56.981Z,0.60
2022-09-30T23:14:25.126Z,1.15
2022-09-30T23:16:52.953Z,0.80
2022-09-30T23:19:21.072Z,0.57
2022-09-30T23:21:48.656Z,0.20
2022-09-30T23:24:16.562Z,0.25
2022-09-30T23:26:44.112Z,0.35
2022-09-30T23:29:14.015Z,0.28
2022-09-30T23:31:42.415Z,0.30
2022-09-30T23:34:10.314Z,0.33
2022-09-30T23:36:38.342Z,0.50
2022-09-30T23:39:20.256Z,0.37
2022-09-30T23:41:49.919Z,0.50
2022-09-30T23:44:18.879Z,0.45
2022-09-30T23:47:08.341Z,0.50
2022-09-30T23:49:36.220Z,0.40
2022-09-30T23:52:12.594Z,0.50
2022-09-30T23:54:44.605Z,0.57
2022-09-30T23:57:12.484Z,0.47
2022-09-30T23:59:40.089Z,0.20
